Gaylord, MI

4:13 AM EST on December 06, 2016 (GMT -0500)
Otsego County | | Change Station

Elev 1325 ft 45.01 °N, 84.70 °W | Updated 20 minutes ago

Overcast
Overcast
31 °F
Feels Like 26 °F
N
5
Wind Variable Wind from ESE

Today
High -- | Low -- °F
--% Chance of Precip.
Yesterday
High -- | Low -- °F
Precip. -- in
Pressure 29.99 in
Visibility 8.0 miles
Clouds Overcast 10000 ft
Windchill 26 °F
Dew Point 27 °F
Humidity 85%
Rainfall 0.00 in
Snow Depth Not available.
8:02 AM 4:57 PM
Waxing Crescent, 40% visible
METAR KGLR 060853Z AUTO 12004KT 8SM OVC100 M01/M03 A2994 RMK AO2 SLP153 T10061028 56007
Pressure 29.99 in
Visibility 8.0 miles
Clouds Overcast 10000 ft
Windchill 26 °F
Dew Point 27 °F
Humidity 85%
Rainfall 0.00 in
Snow Depth Not available.
8:02 AM 4:57 PM
Waxing Crescent, 40% visible
METAR KGLR 060853Z AUTO 12004KT 8SM OVC100 M01/M03 A2994 RMK AO2 SLP153 T10061028 56007

10-Day Weather Forecast

Almanac

Astronomy

Dec. 06, 2016 Rise Set
Actual Time
Civil Twilight
Nautical Twilight
Astronomical Twilight
Moon
Length of Visible Light
Length of Day
Tomorrow will be .
, % of the Moon is Illuminated

Today's Extremes

State Highs State Lows

Community

WunderPhotos

Upload Photos

1,955,935 photos uploaded!

WunderBlog® & News

Nearby

Air Quality

  Air Quality AQ Index Pollutant
Not available.

Snow Depth

Station Depth Elevation

Earthquake Activity

City Distance Mag. Time & Date
Minimum magnitude displayed is 2.5.

Coastal Water Temperatures

Place Temperature

Stations

Nearby Weather Stations

Station Location Temp. Windchill Dew Point Humidity Wind Precip. Elev Updated Type
                   

Watches & Warnings

There are currently no watches in effect.